sensor_id;sensor_type;location;lat;lon;timestamp;pressure;altitude;pressure_sealevel;temperature;humidity
76866;BME280;66647;52.124;5.416;2023-12-22T07:23:51;100394.63;;;6.58;100.00
76866;BME280;66647;52.124;5.416;2023-12-22T07:26:21;100414.69;;;6.62;100.00
76866;BME280;66647;52.124;5.416;2023-12-22T07:28:48;100423.97;;;6.61;100.00
76866;BME280;66647;52.124;5.416;2023-12-22T07:31:20;100415.81;;;6.61;100.00
76866;BME280;66647;52.124;5.416;2023-12-22T07:33:47;100421.75;;;6.63;100.00
76866;BME280;66647;52.124;5.416;2023-12-22T07:36:15;100411.66;;;6.64;100.00
76866;BME280;66647;52.124;5.416;2023-12-22T07:38:49;100416.19;;;6.68;100.00
76866;BME280;66647;52.124;5.416;2023-12-22T07:44:27;100415.38;;;6.68;100.00
76866;BME280;66647;52.124;5.416;2023-12-22T07:47:06;100412.72;;;6.77;100.00
76866;BME280;66647;52.124;5.416;2023-12-22T07:49:36;100405.66;;;6.76;100.00
76866;BME280;66647;52.124;5.416;2023-12-22T07:52:08;100405.59;;;6.67;100.00
76866;BME280;66647;52.124;5.416;2023-12-22T07:54:45;100402.81;;;6.58;100.00
76866;BME280;66647;52.124;5.416;2023-12-22T07:57:30;100415.38;;;6.46;100.00
76866;BME280;66647;52.124;5.416;2023-12-22T08:00:10;100410.66;;;6.37;100.00
76866;BME280;66647;52.124;5.416;2023-12-22T08:03:19;100421.97;;;6.31;100.00
76866;BME280;66647;52.124;5.416;2023-12-22T08:06:14;100423.91;;;6.30;100.00
76866;BME280;66647;52.124;5.416;2023-12-22T08:08:59;100429.16;;;6.27;100.00
76866;BME280;66647;52.124;5.416;2023-12-22T08:21:56;100424.78;;;6.39;100.00
76866;BME280;66647;52.124;5.416;2023-12-22T08:24:56;100402.06;;;6.44;100.00
76866;BME280;66647;52.124;5.416;2023-12-22T08:27:22;100408.97;;;6.50;100.00
76866;BME280;66647;52.124;5.416;2023-12-22T08:30:16;100390.59;;;6.56;100.00
76866;BME280;66647;52.124;5.416;2023-12-22T08:32:46;100388.88;;;6.60;100.00
76866;BME280;66647;52.124;5.416;2023-12-22T08:35:18;100377.16;;;6.59;100.00
76866;BME280;66647;52.124;5.416;2023-12-22T08:38:47;100379.09;;;6.59;100.00
76866;BME280;66647;52.124;5.416;2023-12-22T08:46:28;100371.91;;;6.63;100.00
76866;BME280;66647;52.124;5.416;2023-12-22T08:50:18;100368.88;;;6.64;100.00
76866;BME280;66647;52.124;5.416;2023-12-22T08:53:37;100365.03;;;6.65;100.00
76866;BME280;66647;52.124;5.416;2023-12-22T08:56:10;100360.25;;;6.71;100.00
76866;BME280;66647;52.124;5.416;2023-12-22T09:09:20;100367.44;;;6.98;100.00
76866;BME280;66647;52.124;5.416;2023-12-22T09:24:22;100388.38;;;7.11;100.00
76866;BME280;66647;52.124;5.416;2023-12-22T09:34:46;100398.09;;;6.72;100.00
76866;BME280;66647;52.124;5.416;2023-12-22T09:38:05;100383.22;;;6.56;100.00
76866;BME280;66647;52.124;5.416;2023-12-22T09:40:59;100367.41;;;6.36;100.00
76866;BME280;66647;52.124;5.416;2023-12-22T09:43:27;100388.69;;;6.34;100.00
76866;BME280;66647;52.124;5.416;2023-12-22T09:45:57;100385.16;;;6.33;100.00
76866;BME280;66647;52.124;5.416;2023-12-22T09:53:18;100371.94;;;6.40;100.00
76866;BME280;66647;52.124;5.416;2023-12-22T09:55:47;100368.78;;;6.47;100.00
76866;BME280;66647;52.124;5.416;2023-12-22T09:58:33;100370.72;;;6.55;100.00
76866;BME280;66647;52.124;5.416;2023-12-22T10:01:45;100368.75;;;6.69;100.00
76866;BME280;66647;52.124;5.416;2023-12-22T10:08:41;100384.31;;;7.00;100.00
76866;BME280;66647;52.124;5.416;2023-12-22T10:11:10;100376.97;;;7.09;100.00
76866;BME280;66647;52.124;5.416;2023-12-22T10:13:44;100370.09;;;7.20;100.00
76866;BME280;66647;52.124;5.416;2023-12-22T10:16:16;100375.59;;;7.29;100.00
76866;BME280;66647;52.124;5.416;2023-12-22T10:18:43;100383.81;;;7.37;100.00
76866;BME280;66647;52.124;5.416;2023-12-22T10:21:17;100381.28;;;7.41;100.00
76866;BME280;66647;52.124;5.416;2023-12-22T10:23:44;100363.47;;;7.44;100.00
76866;BME280;66647;52.124;5.416;2023-12-22T10:26:13;100371.03;;;7.47;100.00
76866;BME280;66647;52.124;5.416;2023-12-22T10:28:50;100387.84;;;7.49;100.00
76866;BME280;66647;52.124;5.416;2023-12-22T10:31:42;100377.44;;;7.51;100.00
76866;BME280;66647;52.124;5.416;2023-12-22T10:34:09;100377.91;;;7.53;100.00
76866;BME280;66647;52.124;5.416;2023-12-22T10:40:14;100383.72;;;7.60;100.00
76866;BME280;66647;52.124;5.416;2023-12-22T10:42:45;100383.91;;;7.63;100.00
76866;BME280;66647;52.124;5.416;2023-12-22T10:45:12;100398.50;;;7.67;100.00
76866;BME280;66647;52.124;5.416;2023-12-22T10:47:40;100375.56;;;7.68;100.00
76866;BME280;66647;52.124;5.416;2023-12-22T10:50:07;100388.56;;;7.71;100.00
76866;BME280;66647;52.124;5.416;2023-12-22T10:52:36;100379.75;;;7.74;100.00
76866;BME280;66647;52.124;5.416;2023-12-22T10:55:07;100388.13;;;7.78;100.00
76866;BME280;66647;52.124;5.416;2023-12-22T10:57:37;100374.94;;;7.80;100.00
76866;BME280;66647;52.124;5.416;2023-12-22T11:00:41;100359.84;;;7.83;100.00
76866;BME280;66647;52.124;5.416;2023-12-22T11:03:13;100370.13;;;7.86;100.00
76866;BME280;66647;52.124;5.416;2023-12-22T11:06:06;100370.13;;;7.86;100.00
76866;BME280;66647;52.124;5.416;2023-12-22T11:08:38;100358.88;;;7.87;100.00
76866;BME280;66647;52.124;5.416;2023-12-22T11:14:28;100361.31;;;7.97;100.00
76866;BME280;66647;52.124;5.416;2023-12-22T11:17:13;100379.31;;;7.98;100.00
76866;BME280;66647;52.124;5.416;2023-12-22T11:20:10;100360.03;;;8.03;100.00
76866;BME280;66647;52.124;5.416;2023-12-22T11:26:16;100358.91;;;8.04;100.00
76866;BME280;66647;52.124;5.416;2023-12-22T11:28:47;100349.91;;;8.04;100.00
76866;BME280;66647;52.124;5.416;2023-12-22T11:37:58;100353.28;;;8.09;100.00
76866;BME280;66647;52.124;5.416;2023-12-22T11:40:41;100359.69;;;8.14;100.00
76866;BME280;66647;52.124;5.416;2023-12-22T11:43:21;100366.94;;;8.18;100.00
76866;BME280;66647;52.124;5.416;2023-12-22T11:45:54;100350.69;;;8.22;100.00
76866;BME280;66647;52.124;5.416;2023-12-22T11:48:24;100350.69;;;8.22;100.00
76866;BME280;66647;52.124;5.416;2023-12-22T11:50:51;100341.38;;;8.23;100.00
76866;BME280;66647;52.124;5.416;2023-12-22T11:53:22;100340.75;;;8.26;100.00
76866;BME280;66647;52.124;5.416;2023-12-22T11:56:16;100338.50;;;8.28;100.00
76866;BME280;66647;52.124;5.416;2023-12-22T11:58:47;100337.84;;;8.31;100.00
76866;BME280;66647;52.124;5.416;2023-12-22T12:01:23;100337.38;;;8.29;100.00
76866;BME280;66647;52.124;5.416;2023-12-22T12:06:43;100334.63;;;8.29;100.00
76866;BME280;66647;52.124;5.416;2023-12-22T12:09:10;100325.31;;;8.30;100.00
76866;BME280;66647;52.124;5.416;2023-12-22T12:14:43;100306.69;;;8.32;100.00
76866;BME280;66647;52.124;5.416;2023-12-22T12:21:17;100300.59;;;8.35;100.00
76866;BME280;66647;52.124;5.416;2023-12-22T12:23:50;100305.41;;;8.38;100.00
76866;BME280;66647;52.124;5.416;2023-12-22T12:26:27;100294.66;;;8.41;100.00
76866;BME280;66647;52.124;5.416;2023-12-22T12:28:55;100310.84;;;8.47;100.00
76866;BME280;66647;52.124;5.416;2023-12-22T12:32:22;100302.47;;;8.52;100.00
76866;BME280;66647;52.124;5.416;2023-12-22T12:34:55;100309.22;;;8.54;100.00
76866;BME280;66647;52.124;5.416;2023-12-22T12:54:35;100310.97;;;8.67;100.00
76866;BME280;66647;52.124;5.416;2023-12-22T12:57:05;100334.75;;;8.67;100.00
76866;BME280;66647;52.124;5.416;2023-12-22T13:07:24;100322.56;;;8.64;100.00
76866;BME280;66647;52.124;5.416;2023-12-22T13:10:19;100317.41;;;8.63;100.00
76866;BME280;66647;52.124;5.416;2023-12-22T13:12:50;100332.53;;;8.60;100.00
76866;BME280;66647;52.124;5.416;2023-12-22T13:19:51;100328.34;;;8.63;100.00
76866;BME280;66647;52.124;5.416;2023-12-22T13:22:18;100325.28;;;8.64;100.00
76866;BME280;66647;52.124;5.416;2023-12-22T13:32:46;100302.28;;;8.65;100.00
76866;BME280;66647;52.124;5.416;2023-12-22T13:38:28;100309.19;;;8.71;100.00
76866;BME280;66647;52.124;5.416;2023-12-22T13:41:19;100321.53;;;8.77;100.00
76866;BME280;66647;52.124;5.416;2023-12-22T13:43:49;100296.94;;;8.77;100.00
76866;BME280;66647;52.124;5.416;2023-12-22T13:50:42;100322.53;;;8.73;100.00
76866;BME280;66647;52.124;5.416;2023-12-22T13:54:10;100342.66;;;8.68;100.00
76866;BME280;66647;52.124;5.416;2023-12-22T13:59:52;100340.25;;;8.58;100.00
76866;BME280;66647;52.124;5.416;2023-12-22T14:02:28;100322.88;;;8.54;100.00
76866;BME280;66647;52.124;5.416;2023-12-22T14:04:58;100343.47;;;8.52;100.00
76866;BME280;66647;52.124;5.416;2023-12-22T14:07:29;100335.91;;;8.49;100.00
76866;BME280;66647;52.124;5.416;2023-12-22T14:10:18;100338.97;;;8.47;100.00
76866;BME280;66647;52.124;5.416;2023-12-22T14:12:56;100353.75;;;8.46;100.00
76866;BME280;66647;52.124;5.416;2023-12-22T14:15:25;100358.09;;;8.47;100.00
76866;BME280;66647;52.124;5.416;2023-12-22T14:18:16;100369.34;;;8.46;100.00
76866;BME280;66647;52.124;5.416;2023-12-22T14:24:07;100371.75;;;8.47;100.00
76866;BME280;66647;52.124;5.416;2023-12-22T14:26:53;100365.16;;;8.48;100.00
76866;BME280;66647;52.124;5.416;2023-12-22T14:29:25;100363.56;;;8.47;100.00
76866;BME280;66647;52.124;5.416;2023-12-22T14:31:54;100362.91;;;8.50;100.00
76866;BME280;66647;52.124;5.416;2023-12-22T14:34:20;100370.78;;;8.52;100.00
76866;BME280;66647;52.124;5.416;2023-12-22T14:36:49;100358.25;;;8.51;100.00
76866;BME280;66647;52.124;5.416;2023-12-22T14:39:19;100379.00;;;8.52;100.00
76866;BME280;66647;52.124;5.416;2023-12-22T14:41:55;100385.59;;;8.51;100.00
76866;BME280;66647;52.124;5.416;2023-12-22T14:44:25;100379.31;;;8.50;100.00
76866;BME280;66647;52.124;5.416;2023-12-22T14:46:55;100391.84;;;8.51;100.00
76866;BME280;66647;52.124;5.416;2023-12-22T14:49:21;100377.38;;;8.51;100.00
76866;BME280;66647;52.124;5.416;2023-12-22T14:52:14;100380.91;;;8.51;100.00
76866;BME280;66647;52.124;5.416;2023-12-22T14:54:41;100381.56;;;8.48;100.00
76866;BME280;66647;52.124;5.416;2023-12-22T14:57:54;100389.28;;;8.46;100.00
76866;BME280;66647;52.124;5.416;2023-12-22T15:00:20;100396.53;;;8.42;100.00
76866;BME280;66647;52.124;5.416;2023-12-22T15:02:51;100399.91;;;8.39;100.00
76866;BME280;66647;52.124;5.416;2023-12-22T15:05:20;100415.50;;;8.38;100.00
76866;BME280;66647;52.124;5.416;2023-12-22T15:07:56;100395.09;;;8.36;100.00
76866;BME280;66647;52.124;5.416;2023-12-22T15:10:32;100417.75;;;8.36;100.00
76866;BME280;66647;52.124;5.416;2023-12-22T15:13:03;100394.59;;;8.34;100.00
76866;BME280;66647;52.124;5.416;2023-12-22T15:15:39;100390.56;;;8.31;100.00
76866;BME280;66647;52.124;5.416;2023-12-22T15:18:05;100413.22;;;8.32;100.00
76866;BME280;66647;52.124;5.416;2023-12-22T15:20:47;100417.06;;;8.31;100.00
76866;BME280;66647;52.124;5.416;2023-12-22T15:23:19;100401.81;;;8.30;100.00
76866;BME280;66647;52.124;5.416;2023-12-22T15:25:57;100395.72;;;8.33;100.00
76866;BME280;66647;52.124;5.416;2023-12-22T15:28:33;100409.06;;;8.34;100.00
76866;BME280;66647;52.124;5.416;2023-12-22T15:31:07;100412.13;;;8.33;100.00
76866;BME280;66647;52.124;5.416;2023-12-22T15:33:34;100413.53;;;8.30;100.00
76866;BME280;66647;52.124;5.416;2023-12-22T15:36:26;100424.47;;;8.30;100.00
76866;BME280;66647;52.124;5.416;2023-12-22T15:39:37;100423.16;;;8.28;100.00
76866;BME280;66647;52.124;5.416;2023-12-22T15:42:32;100422.06;;;8.29;100.00
76866;BME280;66647;52.124;5.416;2023-12-22T15:45:19;100423.16;;;8.28;100.00
76866;BME280;66647;52.124;5.416;2023-12-22T15:48:03;100444.38;;;8.31;100.00
76866;BME280;66647;52.124;5.416;2023-12-22T15:50:35;100440.03;;;8.30;100.00
76866;BME280;66647;52.124;5.416;2023-12-22T15:53:17;100419.31;;;8.29;100.00
76866;BME280;66647;52.124;5.416;2023-12-22T15:55:52;100444.91;;;8.33;100.00
76866;BME280;66647;52.124;5.416;2023-12-22T15:58:19;100458.56;;;8.33;100.00
76866;BME280;66647;52.124;5.416;2023-12-22T16:00:45;100450.38;;;8.33;100.00
76866;BME280;66647;52.124;5.416;2023-12-22T16:03:12;100442.03;;;8.38;100.00
76866;BME280;66647;52.124;5.416;2023-12-22T16:05:39;100441.69;;;8.39;100.00
76866;BME280;66647;52.124;5.416;2023-12-22T16:08:07;100447.47;;;8.38;100.00
76866;BME280;66647;52.124;5.416;2023-12-22T16:10:34;100438.97;;;8.39;100.00
76866;BME280;66647;52.124;5.416;2023-12-22T16:13:01;100447.00;;;8.45;100.00
76866;BME280;66647;52.124;5.416;2023-12-22T16:15:29;100434.59;;;8.47;100.00
76866;BME280;66647;52.124;5.416;2023-12-22T16:17:56;100436.22;;;8.48;100.00
76866;BME280;66647;52.124;5.416;2023-12-22T16:20:23;100449.22;;;8.51;100.00
76866;BME280;66647;52.124;5.416;2023-12-22T16:22:54;100450.84;;;8.52;100.00
76866;BME280;66647;52.124;5.416;2023-12-22T16:25:24;100441.03;;;8.51;100.00
76866;BME280;66647;52.124;5.416;2023-12-22T16:27:53;100450.84;;;8.52;100.00
76866;BME280;66647;52.124;5.416;2023-12-22T16:30:20;100459.53;;;8.54;100.00
76866;BME280;66647;52.124;5.416;2023-12-22T16:32:49;100458.41;;;8.55;100.00
76866;BME280;66647;52.124;5.416;2023-12-22T16:35:18;100469.66;;;8.54;100.00
76866;BME280;66647;52.124;5.416;2023-12-22T16:37:45;100460.97;;;8.52;100.00
76866;BME280;66647;52.124;5.416;2023-12-22T16:40:38;100459.03;;;8.52;100.00
76866;BME280;66647;52.124;5.416;2023-12-22T16:43:14;100461.28;;;8.50;100.00
76866;BME280;66647;52.124;5.416;2023-12-22T17:11:35;100474.47;;;8.57;100.00
76866;BME280;66647;52.124;5.416;2023-12-22T17:24:28;100498.75;;;8.67;100.00
76866;BME280;66647;52.124;5.416;2023-12-22T17:28:24;100494.41;;;8.66;100.00
76866;BME280;66647;52.124;5.416;2023-12-22T17:30:53;100508.91;;;8.66;100.00
76866;BME280;66647;52.124;5.416;2023-12-22T17:37:02;100495.88;;;8.72;100.00
76866;BME280;66647;52.124;5.416;2023-12-22T17:39:44;100503.28;;;8.71;100.00
76866;BME280;66647;52.124;5.416;2023-12-22T17:42:23;100494.09;;;8.67;100.00
76866;BME280;66647;52.124;5.416;2023-12-22T17:48:17;100483.50;;;8.74;100.00
76866;BME280;66647;52.124;5.416;2023-12-22T17:51:01;100513.84;;;8.82;100.00
76866;BME280;66647;52.124;5.416;2023-12-22T17:53:30;100516.44;;;8.87;100.00
76866;BME280;66647;52.124;5.416;2023-12-22T17:56:06;100505.00;;;8.85;100.00
76866;BME280;66647;52.124;5.416;2023-12-22T17:58:37;100522.53;;;8.84;100.00
76866;BME280;66647;52.124;5.416;2023-12-22T18:01:22;100525.91;;;8.81;100.00
76866;BME280;66647;52.124;5.416;2023-12-22T18:04:40;100544.56;;;8.79;100.00
76866;BME280;66647;52.124;5.416;2023-12-22T18:12:18;100519.66;;;8.71;100.00
76866;BME280;66647;52.124;5.416;2023-12-22T18:15:14;100514.84;;;8.68;100.00
76866;BME280;66647;52.124;5.416;2023-12-22T18:17:49;100532.03;;;8.69;100.00
76866;BME280;66647;52.124;5.416;2023-12-22T18:20:21;100529.31;;;8.69;100.00
76866;BME280;66647;52.124;5.416;2023-12-22T18:23:28;100543.47;;;8.71;100.00
76866;BME280;66647;52.124;5.416;2023-12-22T18:25:56;100562.28;;;8.72;100.00
76866;BME280;66647;52.124;5.416;2023-12-22T18:28:29;100556.19;;;8.75;100.00
76866;BME280;66647;52.124;5.416;2023-12-22T18:30:59;100557.78;;;8.77;100.00
76866;BME280;66647;52.124;5.416;2023-12-22T18:37:01;100596.81;;;8.60;100.00
76866;BME280;66647;52.124;5.416;2023-12-22T18:39:41;100618.19;;;8.09;100.00
76866;BME280;66647;52.124;5.416;2023-12-22T18:42:32;100632.75;;;7.74;100.00
76866;BME280;66647;52.124;5.416;2023-12-22T18:45:25;100615.72;;;7.24;100.00
76866;BME280;66647;52.124;5.416;2023-12-22T18:47:55;100629.13;;;6.98;100.00
76866;BME280;66647;52.124;5.416;2023-12-22T18:50:21;100629.97;;;6.85;100.00
76866;BME280;66647;52.124;5.416;2023-12-22T18:52:48;100623.53;;;6.81;100.00
76866;BME280;66647;52.124;5.416;2023-12-22T18:55:16;100649.78;;;6.77;100.00
76866;BME280;66647;52.124;5.416;2023-12-22T18:57:46;100663.09;;;6.78;100.00
76866;BME280;66647;52.124;5.416;2023-12-22T19:00:37;100664.53;;;6.76;100.00
76866;BME280;66647;52.124;5.416;2023-12-22T19:03:10;100674.81;;;6.79;100.00
76866;BME280;66647;52.124;5.416;2023-12-22T19:05:37;100697.41;;;6.79;100.00
76866;BME280;66647;52.124;5.416;2023-12-22T19:08:52;100697.13;;;6.81;100.00
76866;BME280;66647;52.124;5.416;2023-12-22T19:11:32;100688.94;;;6.81;100.00
76866;BME280;66647;52.124;5.416;2023-12-22T19:14:03;100690.84;;;6.80;100.00
76866;BME280;66647;52.124;5.416;2023-12-22T19:16:56;100686.69;;;6.83;100.00
76866;BME280;66647;52.124;5.416;2023-12-22T19:19:28;100696.31;;;6.80;100.00
76866;BME280;66647;52.124;5.416;2023-12-22T19:22:02;100704.47;;;6.80;100.00
76866;BME280;66647;52.124;5.416;2023-12-22T19:24:34;100706.69;;;6.78;100.00
76866;BME280;66647;52.124;5.416;2023-12-22T19:27:01;100717.81;;;6.82;100.00
76866;BME280;66647;52.124;5.416;2023-12-22T19:29:31;100733.66;;;6.80;100.00
76866;BME280;66647;52.124;5.416;2023-12-22T19:31:58;100732.84;;;6.79;100.00
76866;BME280;66647;52.124;5.416;2023-12-22T19:34:52;100732.34;;;6.77;100.00
76866;BME280;66647;52.124;5.416;2023-12-22T19:37:19;100742.72;;;6.75;100.00
76866;BME280;66647;52.124;5.416;2023-12-22T19:39:46;100754.75;;;6.74;100.00
76866;BME280;66647;52.124;5.416;2023-12-22T19:42:20;100770.28;;;6.73;100.00
76866;BME280;66647;52.124;5.416;2023-12-22T19:44:47;100786.94;;;6.72;100.00
76866;BME280;66647;52.124;5.416;2023-12-22T19:47:14;100786.63;;;6.73;100.00
76866;BME280;66647;52.124;5.416;2023-12-22T19:53:40;100776.63;;;6.69;100.00
76866;BME280;66647;52.124;5.416;2023-12-22T19:56:10;100784.59;;;6.65;100.00
76866;BME280;66647;52.124;5.416;2023-12-22T19:58:43;100790.34;;;6.64;100.00
76866;BME280;66647;52.124;5.416;2023-12-22T20:01:28;100806.41;;;6.65;100.00
76866;BME280;66647;52.124;5.416;2023-12-22T20:03:55;100800.13;;;6.65;100.00
76866;BME280;66647;52.124;5.416;2023-12-22T20:06:22;100808.63;;;6.63;100.00
76866;BME280;66647;52.124;5.416;2023-12-22T20:08:49;100814.06;;;6.63;100.00
76866;BME280;66647;52.124;5.416;2023-12-22T20:11:16;100820.09;;;6.60;100.00
76866;BME280;66647;52.124;5.416;2023-12-22T20:13:55;100803.25;;;6.58;100.00
76866;BME280;66647;52.124;5.416;2023-12-22T20:16:23;100817.97;;;6.57;100.00
76866;BME280;66647;52.124;5.416;2023-12-22T20:18:53;100822.91;;;6.55;100.00
76866;BME280;66647;52.124;5.416;2023-12-22T20:21:20;100822.41;;;6.53;100.00
76866;BME280;66647;52.124;5.416;2023-12-22T20:24:01;100818.06;;;6.52;100.00
76866;BME280;66647;52.124;5.416;2023-12-22T20:26:28;100823.50;;;6.52;100.00
76866;BME280;66647;52.124;5.416;2023-12-22T20:28:55;100835.50;;;6.51;100.00
76866;BME280;66647;52.124;5.416;2023-12-22T20:31:23;100846.41;;;6.51;100.00
76866;BME280;66647;52.124;5.416;2023-12-22T20:34:39;100842.56;;;6.52;100.00
76866;BME280;66647;52.124;5.416;2023-12-22T20:37:28;100846.91;;;6.53;100.00
76866;BME280;66647;52.124;5.416;2023-12-22T20:39:58;100856.50;;;6.51;100.00
76866;BME280;66647;52.124;5.416;2023-12-22T20:42:25;100851.38;;;6.49;100.00
76866;BME280;66647;52.124;5.416;2023-12-22T20:48:35;100853.78;;;6.51;100.00
76866;BME280;66647;52.124;5.416;2023-12-22T20:51:20;100864.66;;;6.51;100.00
76866;BME280;66647;52.124;5.416;2023-12-22T20:53:49;100867.72;;;6.49;100.00
76866;BME280;66647;52.124;5.416;2023-12-22T20:56:20;100860.34;;;6.50;100.00
76866;BME280;66647;52.124;5.416;2023-12-22T20:59:12;100879.72;;;6.48;100.00
76866;BME280;66647;52.124;5.416;2023-12-22T21:02:05;100897.69;;;6.49;100.00
76866;BME280;66647;52.124;5.416;2023-12-22T21:04:36;100896.56;;;6.50;100.00
76866;BME280;66647;52.124;5.416;2023-12-22T21:07:03;100899.59;;;6.49;100.00
76866;BME280;66647;52.124;5.416;2023-12-22T21:09:30;100890.91;;;6.47;100.00
76866;BME280;66647;52.124;5.416;2023-12-22T21:11:57;100887.09;;;6.48;100.00
76866;BME280;66647;52.124;5.416;2023-12-22T21:14:24;100893.63;;;6.47;100.00
76866;BME280;66647;52.124;5.416;2023-12-22T21:16:51;100890.69;;;6.43;100.00
76866;BME280;66647;52.124;5.416;2023-12-22T21:19:37;100898.13;;;6.37;100.00
76866;BME280;66647;52.124;5.416;2023-12-22T21:22:06;100903.34;;;6.34;100.00
76866;BME280;66647;52.124;5.416;2023-12-22T21:24:33;100901.28;;;6.26;100.00
76866;BME280;66647;52.124;5.416;2023-12-22T21:27:00;100913.81;;;6.27;100.00
76866;BME280;66647;52.124;5.416;2023-12-22T21:29:27;100921.16;;;6.26;100.00
76866;BME280;66647;52.124;5.416;2023-12-22T21:31:54;100926.31;;;6.28;100.00
76866;BME280;66647;52.124;5.416;2023-12-22T21:34:23;100934.19;;;6.29;100.00
76866;BME280;66647;52.124;5.416;2023-12-22T21:40:42;100948.63;;;6.30;100.00
76866;BME280;66647;52.124;5.416;2023-12-22T21:43:20;100947.81;;;6.29;100.00
76866;BME280;66647;52.124;5.416;2023-12-22T21:45:50;100954.06;;;6.30;100.00
76866;BME280;66647;52.124;5.416;2023-12-22T21:48:16;100960.03;;;6.32;100.00
76866;BME280;66647;52.124;5.416;2023-12-22T21:54:22;100970.91;;;6.32;100.00
76866;BME280;66647;52.124;5.416;2023-12-22T21:56:51;100954.88;;;6.30;100.00
76866;BME280;66647;52.124;5.416;2023-12-22T22:02:56;100966.28;;;6.32;100.00
76866;BME280;66647;52.124;5.416;2023-12-22T22:05:22;100948.31;;;6.31;100.00
76866;BME280;66647;52.124;5.416;2023-12-22T22:07:50;100954.59;;;6.32;100.00
76866;BME280;66647;52.124;5.416;2023-12-22T22:10:20;100961.72;;;6.28;100.00
76866;BME280;66647;52.124;5.416;2023-12-22T22:12:53;100964.81;;;6.21;100.00
76866;BME280;66647;52.124;5.416;2023-12-22T22:15:24;100972.25;;;6.16;100.00
76866;BME280;66647;52.124;5.416;2023-12-22T22:17:57;100974.22;;;6.10;100.00
76866;BME280;66647;52.124;5.416;2023-12-22T22:20:26;100979.44;;;6.06;100.00
76866;BME280;66647;52.124;5.416;2023-12-22T22:22:54;100983.84;;;6.02;100.00
76866;BME280;66647;52.124;5.416;2023-12-22T22:25:21;100988.25;;;5.98;100.00
76866;BME280;66647;52.124;5.416;2023-12-22T22:27:52;100984.50;;;5.94;100.00
76866;BME280;66647;52.124;5.416;2023-12-22T22:30:19;100986.97;;;5.91;100.00
76866;BME280;66647;52.124;5.416;2023-12-22T22:33:00;100993.59;;;5.85;100.00
76866;BME280;66647;52.124;5.416;2023-12-22T22:35:32;100992.78;;;5.84;100.00
76866;BME280;66647;52.124;5.416;2023-12-22T22:37:59;100997.97;;;5.81;100.00
76866;BME280;66647;52.124;5.416;2023-12-22T22:40:26;100998.84;;;5.76;100.00
76866;BME280;66647;52.124;5.416;2023-12-22T22:42:59;100997.81;;;5.72;100.00
76866;BME280;66647;52.124;5.416;2023-12-22T22:45:25;101008.16;;;5.70;100.00
76866;BME280;66647;52.124;5.416;2023-12-22T22:47:52;101009.53;;;5.67;100.00
76866;BME280;66647;52.124;5.416;2023-12-22T22:50:23;101021.81;;;5.65;100.00
76866;BME280;66647;52.124;5.416;2023-12-22T22:53:11;101032.69;;;5.65;100.00
76866;BME280;66647;52.124;5.416;2023-12-22T22:55:38;101034.56;;;5.69;100.00
76866;BME280;66647;52.124;5.416;2023-12-22T22:58:27;101045.91;;;5.77;100.00
76866;BME280;66647;52.124;5.416;2023-12-22T23:00:54;101041.81;;;5.79;100.00
76866;BME280;66647;52.124;5.416;2023-12-22T23:03:21;101045.56;;;5.83;100.00
76866;BME280;66647;52.124;5.416;2023-12-22T23:05:47;101055.03;;;5.86;100.00
76866;BME280;66647;52.124;5.416;2023-12-22T23:08:14;101051.22;;;5.87;100.00
76866;BME280;66647;52.124;5.416;2023-12-22T23:10:52;101050.94;;;5.88;100.00
76866;BME280;66647;52.124;5.416;2023-12-22T23:13:19;101051.47;;;5.90;100.00
76866;BME280;66647;52.124;5.416;2023-12-22T23:16:57;101048.75;;;5.90;100.00
76866;BME280;66647;52.124;5.416;2023-12-22T23:19:30;101041.69;;;5.89;100.00
76866;BME280;66647;52.124;5.416;2023-12-22T23:22:23;101053.09;;;5.91;100.00
76866;BME280;66647;52.124;5.416;2023-12-22T23:26:07;101053.66;;;5.88;100.00
76866;BME280;66647;52.124;5.416;2023-12-22T23:28:33;101064.00;;;5.91;100.00
76866;BME280;66647;52.124;5.416;2023-12-22T23:38:37;101057.16;;;5.94;100.00
76866;BME280;66647;52.124;5.416;2023-12-22T23:41:35;101059.31;;;5.97;100.00
76866;BME280;66647;52.124;5.416;2023-12-22T23:44:02;101057.69;;;5.96;100.00
76866;BME280;66647;52.124;5.416;2023-12-22T23:50:24;101061.22;;;5.96;100.00
76866;BME280;66647;52.124;5.416;2023-12-22T23:52:52;101060.41;;;5.96;100.00
76866;BME280;66647;52.124;5.416;2023-12-22T23:55:20;101065.56;;;5.97;100.00
76866;BME280;66647;52.124;5.416;2023-12-22T23:57:53;101063.38;;;5.99;100.00
